createdAt,value
2019-02-16T15:39:13.334Z,2.00
2019-02-16T15:41:41.820Z,2.10
2019-02-16T15:44:10.759Z,2.20
2019-02-16T15:46:38.613Z,2.10
2019-02-16T15:49:06.226Z,2.00
2019-02-16T15:51:33.954Z,2.50
2019-02-16T15:54:01.571Z,2.10
2019-02-16T15:56:29.199Z,2.30
2019-02-16T15:58:56.857Z,2.27
2019-02-16T16:01:24.576Z,2.40
2019-02-16T16:03:52.639Z,2.67
2019-02-16T16:06:20.280Z,2.20
2019-02-16T16:09:05.348Z,2.30
2019-02-16T16:11:43.001Z,2.70
2019-02-16T16:14:32.980Z,2.33
2019-02-16T16:17:10.386Z,2.20
2019-02-16T16:19:46.844Z,2.40
2019-02-16T16:22:45.951Z,2.60
2019-02-16T16:25:51.501Z,2.63
2019-02-16T16:28:41.475Z,2.70
2019-02-16T16:31:37.311Z,2.43
2019-02-16T16:34:24.474Z,2.30
2019-02-16T16:37:11.189Z,2.40
2019-02-16T16:39:51.632Z,2.53
2019-02-16T16:42:37.151Z,2.10
2019-02-16T16:45:22.765Z,2.30
2019-02-16T16:48:16.910Z,2.50
2019-02-16T16:50:56.443Z,2.60
2019-02-16T16:53:44.645Z,2.83
2019-02-16T16:56:31.797Z,2.53
2019-02-16T16:59:17.419Z,2.47
2019-02-16T17:02:07.664Z,2.70
2019-02-16T17:04:57.493Z,2.60
2019-02-16T17:07:47.162Z,2.73
2019-02-16T17:10:32.088Z,2.33
2019-02-16T17:13:34.139Z,2.77
2019-02-16T17:16:19.902Z,2.77
2019-02-16T17:19:01.435Z,2.60
2019-02-16T17:21:44.712Z,2.17
2019-02-16T17:24:34.367Z,2.43
2019-02-16T17:27:28.724Z,2.63
2019-02-16T17:30:21.815Z,2.30
2019-02-16T17:33:11.351Z,2.67
2019-02-16T17:35:57.096Z,2.30
2019-02-16T17:38:36.473Z,2.40
2019-02-16T17:41:24.155Z,2.70
2019-02-16T17:44:20.184Z,2.60
2019-02-16T17:47:06.021Z,2.60
2019-02-16T17:49:52.693Z,2.40
2019-02-16T17:52:49.657Z,2.53
2019-02-16T17:55:35.281Z,2.67
2019-02-16T17:58:21.165Z,2.70
2019-02-16T18:01:13.512Z,2.80
2019-02-16T18:04:18.592Z,2.50
2019-02-16T18:07:15.094Z,2.80
2019-02-16T18:10:08.139Z,2.73
2019-02-16T18:13:04.443Z,2.40
2019-02-16T18:15:53.298Z,2.53
2019-02-16T18:18:40.240Z,2.53
2019-02-16T18:21:15.978Z,2.90
2019-02-16T18:23:51.586Z,2.50
2019-02-16T18:26:34.679Z,2.60
2019-02-16T18:29:11.478Z,2.70
2019-02-16T18:31:58.598Z,2.50
2019-02-16T18:34:45.733Z,2.70
2019-02-16T18:37:21.319Z,2.80
2019-02-16T18:40:07.020Z,2.57
2019-02-16T18:42:45.196Z,2.60
2019-02-16T18:45:43.939Z,2.73
2019-02-16T18:48:31.166Z,2.80
2019-02-16T18:51:27.152Z,2.37
2019-02-16T18:54:12.763Z,2.80
2019-02-16T18:57:06.292Z,2.67
2019-02-16T18:59:34.414Z,2.60
2019-02-16T19:02:21.828Z,2.90
2019-02-16T19:05:12.127Z,2.60
2019-02-16T19:08:02.127Z,2.60
2019-02-16T19:10:48.325Z,2.37
2019-02-16T19:13:35.503Z,2.47
2019-02-16T19:16:22.698Z,2.97
2019-02-16T19:19:08.212Z,2.70
2019-02-16T19:21:52.266Z,3.03
2019-02-16T19:24:29.392Z,2.80
2019-02-16T19:27:17.103Z,2.73
2019-02-16T19:30:07.408Z,2.77
2019-02-16T19:32:58.231Z,2.73
2019-02-16T19:35:32.799Z,2.70
2019-02-16T19:38:16.959Z,2.77
2019-02-16T19:40:56.689Z,2.93
2019-02-16T19:43:58.816Z,3.17
2019-02-16T19:46:52.477Z,2.90
2019-02-16T19:49:42.449Z,3.10
2019-02-16T19:52:35.408Z,2.53
2019-02-16T19:55:22.226Z,3.20
2019-02-16T19:58:03.414Z,2.83
2019-02-16T20:00:50.527Z,3.00
2019-02-16T20:03:32.821Z,3.07
2019-02-16T20:06:18.577Z,3.07
2019-02-16T20:09:11.580Z,3.43
2019-02-16T20:11:47.824Z,3.40
2019-02-16T20:14:33.268Z,3.00
2019-02-16T20:17:20.762Z,3.00
2019-02-16T20:20:13.716Z,2.97
2019-02-16T20:23:01.193Z,2.93
2019-02-16T20:26:06.665Z,3.50
2019-02-16T20:28:59.565Z,2.90
2019-02-16T20:31:49.814Z,2.87
2019-02-16T20:34:24.037Z,2.90
2019-02-16T20:37:00.100Z,2.80
2019-02-16T20:39:46.684Z,3.47
2019-02-16T20:42:36.583Z,3.10
2019-02-16T20:45:27.085Z,2.50
2019-02-16T20:48:12.891Z,3.13
2019-02-16T20:51:11.955Z,3.00
2019-02-16T20:53:56.403Z,2.97
2019-02-16T20:56:31.149Z,2.90
2019-02-16T20:59:12.880Z,3.40
2019-02-16T21:02:11.850Z,3.10
2019-02-16T21:04:57.720Z,2.90
2019-02-16T21:07:53.742Z,2.93
2019-02-16T21:10:46.906Z,3.03
2019-02-16T21:13:29.058Z,2.80
2019-02-16T21:16:17.473Z,3.20
2019-02-16T21:19:07.661Z,2.80
2019-02-16T21:21:55.095Z,2.80
2019-02-16T21:24:45.012Z,3.27
2019-02-16T21:27:22.937Z,2.87
2019-02-16T21:30:09.712Z,3.10
2019-02-16T21:32:47.567Z,3.03
2019-02-16T21:35:46.381Z,2.93
2019-02-16T21:38:24.533Z,3.20
2019-02-16T21:41:13.955Z,3.20
2019-02-16T21:43:59.806Z,3.37
2019-02-16T21:46:53.343Z,3.00
2019-02-16T21:49:39.590Z,3.40
2019-02-16T21:52:19.702Z,3.03
2019-02-16T21:55:05.412Z,3.30
2019-02-16T21:57:42.752Z,3.20
2019-02-16T22:00:22.571Z,3.20
2019-02-16T22:03:04.214Z,3.23
2019-02-16T22:05:49.791Z,3.10
2019-02-16T22:08:36.834Z,3.23
2019-02-16T22:11:26.841Z,2.97
2019-02-16T22:13:54.485Z,3.17
2019-02-16T22:16:22.149Z,2.90
2019-02-16T22:18:49.834Z,2.97
2019-02-16T22:21:17.574Z,3.17
2019-02-16T22:23:45.173Z,2.83
2019-02-16T22:26:12.820Z,2.90
2019-02-16T22:28:40.425Z,3.23
2019-02-16T22:31:08.137Z,3.30
2019-02-16T22:33:35.728Z,3.43
2019-02-16T22:36:03.595Z,3.30
2019-02-16T22:38:31.219Z,3.30
2019-02-16T22:40:58.856Z,3.33
2019-02-16T22:43:26.501Z,3.20
2019-02-16T22:45:54.129Z,3.37
2019-02-16T22:48:21.926Z,3.30
2019-02-16T22:50:49.721Z,3.33
2019-02-16T22:53:17.343Z,3.37
2019-02-16T22:55:44.964Z,3.50
2019-02-16T22:58:12.613Z,3.57
2019-02-16T23:00:48.162Z,3.40
2019-02-16T23:03:17.805Z,3.10
2019-02-16T23:05:45.422Z,3.10
2019-02-16T23:08:14.240Z,3.40
2019-02-16T23:10:41.852Z,3.20
2019-02-16T23:13:09.592Z,3.30
2019-02-16T23:15:37.341Z,3.43
2019-02-16T23:18:05.062Z,3.40
2019-02-16T23:20:32.769Z,3.27
2019-02-16T23:23:00.418Z,3.47
2019-02-16T23:25:28.060Z,3.53
2019-02-16T23:27:55.773Z,3.60
2019-02-16T23:30:23.927Z,3.80
2019-02-16T23:32:51.531Z,3.30
2019-02-16T23:35:19.352Z,3.33
2019-02-16T23:37:47.038Z,3.60
2019-02-16T23:40:14.667Z,3.37
2019-02-16T23:42:42.353Z,3.67
2019-02-16T23:45:10.016Z,3.60
2019-02-16T23:47:37.615Z,3.70
2019-02-16T23:50:06.768Z,4.07
2019-02-16T23:52:34.422Z,3.60
2019-02-16T23:55:02.315Z,3.57
2019-02-16T23:57:29.973Z,3.77
2019-02-16T23:59:57.594Z,3.43
